Time;durP1;ratioP1;P1;durP2;ratioP2;P2;SDS_P1;SDS_P2;PMS_P1;PMS_P2;Temp;Humidity;BMP_temperature;BMP_pressure;BME280_temperature;BME280_humidity;BME280_pressure;Samples;Min_cycle;Max_cycle;Signal;HPM_P1;HPM_P2
2023/04/05 00:00:27;;;;;;;12.07;5.53;;;3.60;99.90;;;;;;5073618;28;20041;-70
2023/04/05 00:02:54;;;;;;;9.43;5.47;;;3.60;99.90;;;;;;5073654;28;20094;-70
2023/04/05 00:05:28;;;;;;;10.00;5.65;;;3.50;99.90;;;;;;5073422;28;20079;-69
2023/04/05 00:07:59;;;;;;;10.60;5.82;;;3.50;99.90;;;;;;5073802;28;20050;-69
2023/04/05 00:10:31;;;;;;;7.05;4.85;;;3.40;99.90;;;;;;5074888;28;20086;-70
2023/04/05 00:12:57;;;;;;;11.27;6.32;;;3.40;99.90;;;;;;5074804;28;20041;-70
2023/04/05 00:15:23;;;;;;;11.10;4.97;;;3.40;99.90;;;;;;5074585;28;20036;-69
2023/04/05 00:17:49;;;;;;;8.25;4.75;;;3.40;99.90;;;;;;5073606;28;20047;-70
2023/04/05 00:20:15;;;;;;;8.43;5.15;;;3.30;99.90;;;;;;5073285;28;20037;-70
2023/04/05 00:22:43;;;;;;;10.18;5.00;;;3.20;99.90;;;;;;5074636;28;20056;-70
2023/04/05 00:25:09;;;;;;;8.85;5.18;;;3.20;99.90;;;;;;5074406;28;20032;-70
2023/04/05 00:27:35;;;;;;;9.23;5.28;;;3.20;99.90;;;;;;5074592;28;20421;-70
2023/04/05 00:30:01;;;;;;;12.93;6.60;;;3.20;99.90;;;;;;5073221;28;20044;-70
2023/04/05 00:32:26;;;;;;;9.82;5.93;;;3.20;99.90;;;;;;5074363;28;20036;-70
2023/04/05 00:34:52;;;;;;;11.60;6.75;;;3.10;99.90;;;;;;5074288;28;20037;-70
2023/04/05 00:37:17;;;;;;;10.88;6.28;;;3.10;99.90;;;;;;5074508;28;20033;-70
2023/04/05 00:39:43;;;;;;;12.52;6.57;;;3.00;99.90;;;;;;5074198;28;20036;-70
2023/04/05 00:42:08;;;;;;;12.43;6.63;;;3.00;99.90;;;;;;5074302;28;20121;-70
2023/04/05 00:44:34;;;;;;;12.32;6.70;;;3.00;99.90;;;;;;5072733;28;20080;-70
2023/04/05 00:47:06;;;;;;;9.85;5.53;;;2.90;99.90;;;;;;5072724;28;20072;-70
2023/04/05 00:49:34;;;;;;;10.75;6.40;;;2.90;99.90;;;;;;5074066;28;20621;-69
2023/04/05 00:52:00;;;;;;;10.93;6.28;;;2.90;99.90;;;;;;5074107;28;20040;-70
2023/04/05 00:54:29;;;;;;;10.77;5.57;;;2.90;99.90;;;;;;5073886;28;20564;-69
2023/04/05 00:56:56;;;;;;;12.15;6.72;;;2.80;99.90;;;;;;5055902;28;20044;-70
2023/04/05 00:59:22;;;;;;;9.52;6.05;;;2.80;99.90;;;;;;5072673;28;20045;-69
2023/04/05 01:02:05;;;;;;;8.45;5.95;;;2.80;99.90;;;;;;5072583;28;20538;-70
2023/04/05 01:04:35;;;;;;;12.30;6.78;;;2.80;99.90;;;;;;5072413;28;20444;-70
2023/04/05 01:07:43;;;;;;;13.02;6.15;;;2.70;99.90;;;;;;5073543;28;20491;-69
2023/04/05 01:10:12;;;;;;;11.68;5.95;;;2.70;99.90;;;;;;5064082;28;20131;-69
2023/04/05 01:12:38;;;;;;;12.55;6.57;;;2.70;99.90;;;;;;5072470;28;20040;-69
2023/04/05 01:15:04;;;;;;;9.82;6.93;;;2.60;99.90;;;;;;5073479;28;20028;-70
2023/04/05 01:17:35;;;;;;;15.68;6.88;;;2.60;99.90;;;;;;5073615;28;20587;-69
2023/04/05 01:20:09;;;;;;;12.25;6.28;;;2.60;99.90;;;;;;5072316;28;20048;-69
2023/04/05 01:22:55;;;;;;;9.45;5.60;;;2.60;99.90;;;;;;5073432;28;20071;-69
2023/04/05 01:25:45;;;;;;;10.57;5.82;;;2.60;99.90;;;;;;5061296;28;20050;-69
2023/04/05 01:28:51;;;;;;;11.48;5.75;;;2.60;99.90;;;;;;5072145;28;20545;-69
2023/04/05 01:31:24;;;;;;;12.00;5.97;;;2.50;99.90;;;;;;5073446;28;20114;-69
2023/04/05 01:34:15;;;;;;;11.20;6.05;;;2.50;99.90;;;;;;5073333;28;20041;-69
2023/04/05 01:36:54;;;;;;;13.90;6.80;;;2.50;99.90;;;;;;5071908;28;20040;-69
2023/04/05 01:39:22;;;;;;;14.38;6.43;;;2.50;99.90;;;;;;5073011;28;20071;-69
2023/04/05 01:41:47;;;;;;;11.23;6.60;;;2.50;99.90;;;;;;5072165;28;20471;-69
2023/04/05 01:44:13;;;;;;;13.10;6.05;;;2.40;99.90;;;;;;5072950;28;20127;-69
2023/04/05 01:46:38;;;;;;;12.07;5.95;;;2.40;99.90;;;;;;5073008;28;20424;-69
2023/04/05 01:49:04;;;;;;;10.57;5.97;;;2.40;99.90;;;;;;5072819;28;20040;-69
2023/04/05 01:51:30;;;;;;;12.55;6.82;;;2.40;99.90;;;;;;5072817;28;20043;-69
2023/04/05 01:53:56;;;;;;;12.15;6.15;;;2.40;99.90;;;;;;5071486;28;20048;-69
2023/04/05 01:56:21;;;;;;;12.30;6.82;;;2.40;99.90;;;;;;5072832;28;20040;-69
2023/04/05 01:58:47;;;;;;;12.40;6.43;;;2.40;99.90;;;;;;5072966;28;20044;-69
2023/04/05 02:01:12;;;;;;;12.35;6.70;;;2.40;99.90;;;;;;5072682;28;20526;-69
2023/04/05 02:03:38;;;;;;;14.13;7.30;;;2.40;99.90;;;;;;5071454;28;20411;-69
2023/04/05 02:06:04;;;;;;;12.43;7.25;;;2.30;99.90;;;;;;5072298;28;20047;-69
2023/04/05 02:08:30;;;;;;;12.38;6.80;;;2.30;99.90;;;;;;5071267;28;20055;-69
2023/04/05 02:10:55;;;;;;;11.15;6.38;;;2.30;99.90;;;;;;5072518;28;20425;-69
2023/04/05 02:13:21;;;;;;;11.57;6.97;;;2.30;99.90;;;;;;5054618;28;20523;-69
2023/04/05 02:15:50;;;;;;;16.02;7.50;;;2.30;99.90;;;;;;5054669;28;20581;-69
2023/04/05 02:18:21;;;;;;;12.40;7.40;;;2.30;99.90;;;;;;5071921;28;20119;-70
2023/04/05 02:20:49;;;;;;;14.50;7.45;;;2.30;99.90;;;;;;5072285;28;20048;-69
2023/04/05 02:23:15;;;;;;;13.45;7.75;;;2.30;99.90;;;;;;5071141;28;20124;-69
2023/04/05 02:25:40;;;;;;;10.55;7.10;;;2.30;99.90;;;;;;5070958;28;20504;-69
2023/04/05 02:28:06;;;;;;;13.43;7.50;;;2.30;99.90;;;;;;5070882;28;20044;-69
2023/04/05 02:30:32;;;;;;;15.20;7.57;;;2.30;99.90;;;;;;5071078;28;20407;-69
2023/04/05 02:32:57;;;;;;;13.05;7.15;;;2.20;99.90;;;;;;5072273;28;20592;-69
2023/04/05 02:35:23;;;;;;;10.90;6.57;;;2.20;99.90;;;;;;5070450;28;20050;-69
2023/04/05 02:37:48;;;;;;;14.38;7.47;;;2.20;99.90;;;;;;5072299;28;20044;-69
2023/04/05 02:40:14;;;;;;;13.80;7.00;;;2.20;99.90;;;;;;5070515;28;20500;-69
2023/04/05 02:42:40;;;;;;;11.55;7.22;;;2.10;99.90;;;;;;5072000;28;20036;-69
2023/04/05 02:45:07;;;;;;;16.10;8.25;;;2.10;99.90;;;;;;5071631;28;20042;-69
2023/04/05 02:47:33;;;;;;;14.30;7.85;;;2.10;99.90;;;;;;5071978;28;20044;-69
2023/04/05 02:49:58;;;;;;;15.80;7.43;;;2.00;99.90;;;;;;5071717;28;20044;-69
2023/04/05 02:52:24;;;;;;;15.27;8.40;;;2.00;99.90;;;;;;5071923;28;20036;-69
2023/04/05 02:54:50;;;;;;;13.32;6.72;;;1.90;99.90;;;;;;5071767;28;20040;-69
2023/04/05 02:57:15;;;;;;;14.80;7.57;;;1.90;99.90;;;;;;5072133;28;20125;-69
2023/04/05 02:59:41;;;;;;;14.15;7.65;;;1.90;99.90;;;;;;5071953;28;20086;-69
2023/04/05 03:02:08;;;;;;;18.92;8.60;;;1.90;99.90;;;;;;5072061;28;20044;-69
2023/04/05 03:04:34;;;;;;;14.23;7.70;;;2.00;99.90;;;;;;5070258;28;20048;-69
2023/04/05 03:07:01;;;;;;;14.23;7.75;;;2.00;99.90;;;;;;5071529;28;20036;-69
2023/04/05 03:09:32;;;;;;;16.88;7.78;;;1.90;99.90;;;;;;5072057;28;20041;-69
2023/04/05 03:12:03;;;;;;;14.50;8.38;;;1.90;99.90;;;;;;5071941;28;20040;-69
2023/04/05 03:14:33;;;;;;;14.63;6.88;;;2.00;99.90;;;;;;5071643;28;20040;-69
2023/04/05 03:16:58;;;;;;;10.98;6.95;;;1.90;99.90;;;;;;5070236;28;20040;-69
2023/04/05 03:19:25;;;;;;;14.68;7.97;;;1.90;99.90;;;;;;5071410;28;20098;-69
2023/04/05 03:21:51;;;;;;;13.68;7.35;;;2.00;99.90;;;;;;5071775;28;20079;-69
2023/04/05 03:24:17;;;;;;;13.20;7.68;;;1.90;99.90;;;;;;5071454;28;20081;-69
2023/04/05 03:26:44;;;;;;;13.60;6.80;;;1.90;99.90;;;;;;5071516;28;20044;-69
2023/04/05 03:29:10;;;;;;;15.88;7.57;;;1.90;99.90;;;;;;5071436;28;20036;-69
2023/04/05 03:31:35;;;;;;;13.23;8.10;;;1.90;99.90;;;;;;5072887;28;20119;-69
2023/04/05 03:34:01;;;;;;;15.40;7.13;;;1.80;99.90;;;;;;5074345;28;20048;-69
2023/04/05 03:36:31;;;;;;;14.43;6.70;;;1.80;99.90;;;;;;5075508;28;20112;-69
2023/04/05 03:38:56;;;;;;;15.43;7.80;;;1.80;99.90;;;;;;5075620;28;20135;-69
2023/04/05 03:41:22;;;;;;;14.40;7.18;;;1.80;99.90;;;;;;5075209;28;20127;-69
2023/04/05 03:43:48;;;;;;;12.48;7.88;;;1.80;99.90;;;;;;5075240;28;20044;-69
2023/04/05 03:46:14;;;;;;;13.07;7.45;;;1.80;99.90;;;;;;5073740;28;20044;-69
2023/04/05 03:48:39;;;;;;;14.43;6.80;;;1.80;99.90;;;;;;5075222;28;20090;-69
2023/04/05 03:51:05;;;;;;;15.23;7.97;;;1.70;99.90;;;;;;5075109;28;20504;-69
2023/04/05 03:53:31;;;;;;;13.48;7.38;;;1.70;99.90;;;;;;5075119;28;20152;-69
2023/04/05 03:55:57;;;;;;;14.52;8.25;;;1.70;99.90;;;;;;5073812;28;20132;-69
2023/04/05 03:58:25;;;;;;;15.48;7.93;;;1.70;99.90;;;;;;5075073;28;20577;-69
2023/04/05 04:00:51;;;;;;;13.52;8.05;;;1.70;99.90;;;;;;5073650;28;20036;-69
2023/04/05 04:03:17;;;;;;;12.57;7.97;;;1.70;99.90;;;;;;5075066;28;20044;-69
2023/04/05 04:05:43;;;;;;;14.07;7.95;;;1.60;99.90;;;;;;5085371;28;20039;-69
2023/04/05 04:08:08;;;;;;;14.80;8.07;;;1.60;99.90;;;;;;5095083;28;20384;-69
2023/04/05 04:10:35;;;;;;;14.25;9.02;;;1.60;99.90;;;;;;5093886;28;20044;-69
2023/04/05 04:13:00;;;;;;;15.25;8.48;;;1.60;99.90;;;;;;5095076;28;20093;-69
2023/04/05 04:15:26;;;;;;;15.75;8.60;;;1.60;99.90;;;;;;5094633;28;20457;-69
2023/04/05 04:17:52;;;;;;;16.73;9.23;;;1.60;99.90;;;;;;5093716;28;20032;-69
2023/04/05 04:20:17;;;;;;;16.27;9.38;;;1.60;99.90;;;;;;5095003;28;20155;-69
2023/04/05 04:22:44;;;;;;;14.27;8.32;;;1.60;99.90;;;;;;5094871;28;20032;-69
2023/04/05 04:25:11;;;;;;;14.68;8.60;;;1.60;99.90;;;;;;5094634;28;20036;-70
2023/04/05 04:27:42;;;;;;;14.52;8.13;;;1.60;99.90;;;;;;5093650;28;20074;-69
2023/04/05 04:30:12;;;;;;;15.38;8.60;;;1.60;99.90;;;;;;5094639;28;20036;-69
2023/04/05 04:32:54;;;;;;;14.93;9.00;;;1.50;99.90;;;;;;5093543;28;20501;-69
2023/04/05 04:35:23;;;;;;;18.25;10.60;;;1.60;99.90;;;;;;5094538;28;20035;-69
2023/04/05 04:38:03;;;;;;;16.75;9.07;;;1.50;99.90;;;;;;5093360;28;20040;-69
2023/04/05 04:40:37;;;;;;;15.00;9.07;;;1.50;99.90;;;;;;5093099;28;20043;-70
2023/04/05 04:43:03;;;;;;;17.25;9.82;;;1.50;99.90;;;;;;5094067;28;20037;-70
2023/04/05 04:45:33;;;;;;;16.92;9.82;;;1.50;99.90;;;;;;5094351;28;20032;-70
2023/04/05 04:47:59;;;;;;;17.33;10.27;;;1.40;99.90;;;;;;5094308;28;20522;-70
2023/04/05 04:50:26;;;;;;;17.77;9.63;;;1.50;99.90;;;;;;5093161;28;20047;-70
2023/04/05 04:52:51;;;;;;;19.52;9.65;;;1.50;99.90;;;;;;5092958;28;20059;-70
2023/04/05 04:55:24;;;;;;;14.88;9.38;;;1.60;99.90;;;;;;5093909;28;20040;-70
2023/04/05 04:57:51;;;;;;;17.50;9.63;;;1.60;99.90;;;;;;5094344;28;20075;-70
2023/04/05 05:00:17;;;;;;;13.70;9.20;;;1.60;99.90;;;;;;5094068;28;20071;-70
2023/04/05 05:02:45;;;;;;;18.33;11.18;;;1.50;99.90;;;;;;5094116;28;20079;-70
2023/04/05 05:05:11;;;;;;;18.88;12.30;;;1.50;99.90;;;;;;5093978;28;20031;-70
2023/04/05 05:07:40;;;;;;;18.70;10.90;;;1.50;99.90;;;;;;5093960;28;20039;-70
2023/04/05 05:10:06;;;;;;;17.90;10.57;;;1.40;99.90;;;;;;5094118;28;20050;-70
2023/04/05 05:12:32;;;;;;;15.32;9.32;;;1.40;99.90;;;;;;5094139;28;20036;-70
2023/04/05 05:14:58;;;;;;;20.88;10.23;;;1.40;99.90;;;;;;5093754;28;20569;-70
2023/04/05 05:17:23;;;;;;;18.92;10.88;;;1.40;99.90;;;;;;5093735;28;20117;-70
2023/04/05 05:19:50;;;;;;;17.88;10.63;;;1.40;99.90;;;;;;5093742;28;20051;-70
2023/04/05 05:22:16;;;;;;;18.50;11.50;;;1.50;99.90;;;;;;5093609;28;20043;-70
2023/04/05 05:24:42;;;;;;;17.70;10.25;;;1.50;99.90;;;;;;5076214;28;20051;-70
2023/04/05 05:27:08;;;;;;;17.00;10.80;;;1.60;99.90;;;;;;5073452;28;20064;-70
2023/04/05 05:29:33;;;;;;;16.77;10.73;;;1.60;99.90;;;;;;5073213;28;20463;-70
2023/04/05 05:31:59;;;;;;;15.82;9.85;;;1.60;99.90;;;;;;5072032;28;20120;-70
2023/04/05 05:34:25;;;;;;;17.02;10.07;;;1.60;99.90;;;;;;5073128;28;20032;-70
2023/04/05 05:36:52;;;;;;;18.55;11.10;;;1.70;99.90;;;;;;5072964;28;20419;-70
2023/04/05 05:39:18;;;;;;;16.50;10.68;;;1.80;99.90;;;;;;5073086;28;20051;-70
2023/04/05 05:41:44;;;;;;;21.25;10.95;;;1.90;99.90;;;;;;5073309;28;20040;-70
2023/04/05 05:44:09;;;;;;;18.38;11.70;;;1.80;99.90;;;;;;5072932;28;20041;-70
2023/04/05 05:46:35;;;;;;;16.90;11.13;;;1.90;99.90;;;;;;5072837;28;20086;-70
2023/04/05 05:49:00;;;;;;;16.42;10.77;;;2.00;99.90;;;;;;5072958;28;20086;-70
2023/04/05 05:51:26;;;;;;;14.13;9.82;;;2.00;99.90;;;;;;5072718;28;20051;-70
2023/04/05 05:53:51;;;;;;;21.98;11.27;;;2.10;99.90;;;;;;5071963;28;20036;-70
2023/04/05 05:56:17;;;;;;;20.30;10.63;;;2.10;99.90;;;;;;5072792;28;20045;-70
2023/04/05 05:58:42;;;;;;;15.93;10.18;;;2.10;99.90;;;;;;5071461;28;20492;-70
2023/04/05 06:01:10;;;;;;;20.33;12.15;;;2.20;99.90;;;;;;5072634;28;20209;-70
2023/04/05 06:03:36;;;;;;;19.40;11.23;;;2.10;99.90;;;;;;5071470;28;20075;-70
2023/04/05 06:06:04;;;;;;;20.27;11.23;;;2.20;99.90;;;;;;5072268;28;20797;-70
2023/04/05 06:08:30;;;;;;;17.95;11.93;;;2.30;99.90;;;;;;5072535;28;20492;-70
2023/04/05 06:10:56;;;;;;;16.48;10.43;;;2.50;99.90;;;;;;5072505;28;20044;-71
2023/04/05 06:13:22;;;;;;;20.75;10.40;;;2.60;99.90;;;;;;5072499;28;20040;-70
2023/04/05 06:15:48;;;;;;;18.80;11.80;;;2.70;99.90;;;;;;5072044;28;20045;-71
2023/04/05 06:18:14;;;;;;;16.85;10.55;;;2.90;99.90;;;;;;5072301;28;20123;-71
2023/04/05 06:20:43;;;;;;;16.40;10.27;;;3.00;99.90;;;;;;5071180;28;20041;-71
2023/04/05 06:23:09;;;;;;;15.32;9.45;;;3.30;99.90;;;;;;5072094;28;20500;-70
2023/04/05 06:25:35;;;;;;;15.93;9.85;;;3.50;99.90;;;;;;5072073;28;20041;-71
2023/04/05 06:28:02;;;;;;;16.27;10.27;;;3.70;99.90;;;;;;5072197;28;20078;-71
2023/04/05 06:30:28;;;;;;;12.43;9.20;;;4.00;99.90;;;;;;5072049;28;20149;-71
2023/04/05 06:32:54;;;;;;;12.52;8.88;;;4.10;99.90;;;;;;5072081;28;20086;-71
2023/04/05 06:35:21;;;;;;;16.30;9.30;;;4.30;99.90;;;;;;5071912;28;20040;-71
2023/04/05 06:37:47;;;;;;;18.38;10.70;;;4.50;99.90;;;;;;5072219;28;20036;-71
2023/04/05 06:40:13;;;;;;;14.90;8.98;;;4.60;99.90;;;;;;5070706;28;20119;-71
2023/04/05 06:42:39;;;;;;;17.23;9.48;;;4.70;99.90;;;;;;5071877;28;20032;-71
2023/04/05 06:45:05;;;;;;;13.00;8.18;;;4.90;99.90;;;;;;5071657;28;20468;-71
2023/04/05 06:47:34;;;;;;;18.83;9.65;;;5.00;99.90;;;;;;5071879;28;20044;-70
2023/04/05 06:50:01;;;;;;;13.30;8.48;;;5.20;99.90;;;;;;5071943;28;20062;-71
2023/04/05 06:52:27;;;;;;;16.30;8.88;;;5.30;99.90;;;;;;5071686;28;20048;-71
2023/04/05 06:54:52;;;;;;;10.98;8.75;;;5.50;99.90;;;;;;5070906;28;20047;-71
2023/04/05 06:57:18;;;;;;;12.60;8.20;;;5.60;99.90;;;;;;5071390;28;20173;-71
2023/04/05 06:59:43;;;;;;;12.70;8.02;;;5.80;99.90;;;;;;5071583;28;20121;-70
2023/04/05 07:02:09;;;;;;;12.90;8.20;;;6.10;99.90;;;;;;5071601;28;20040;-70
2023/04/05 07:04:36;;;;;;;13.45;8.23;;;6.40;99.90;;;;;;5071470;28;20032;-71
2023/04/05 07:07:02;;;;;;;16.98;7.85;;;6.60;99.90;;;;;;5071707;28;20500;-71
2023/04/05 07:09:31;;;;;;;14.20;7.47;;;6.80;99.80;;;;;;5071663;28;20396;-70
2023/04/05 07:11:57;;;;;;;13.02;7.75;;;7.10;99.40;;;;;;5070621;28;20043;-71
2023/04/05 07:14:23;;;;;;;14.43;8.57;;;7.40;99.00;;;;;;5071518;28;20049;-71
2023/04/05 07:16:48;;;;;;;18.35;8.13;;;7.70;98.70;;;;;;5071347;28;20042;-71
2023/04/05 07:19:14;;;;;;;191.30;23.65;;;7.70;98.00;;;;;;5070183;28;20110;-70
2023/04/05 07:21:40;;;;;;;116.93;15.35;;;7.70;99.90;;;;;;5071889;28;20127;-70
2023/04/05 07:24:06;;;;;;;14.73;8.50;;;8.50;99.90;;;;;;5070091;28;20080;-71
2023/04/05 07:26:36;;;;;;;15.25;8.35;;;8.50;99.60;;;;;;5070108;28;20040;-70
2023/04/05 07:29:03;;;;;;;15.88;8.88;;;8.70;98.80;;;;;;5071539;28;20040;-71
2023/04/05 07:31:29;;;;;;;471.48;49.92;;;8.90;98.20;;;;;;5070053;28;20076;-71
2023/04/05 07:33:54;;;;;;;466.15;50.47;;;9.50;98.50;;;;;;5071449;28;20083;-71
2023/04/05 07:36:20;;;;;;;48.30;11.88;;;9.20;97.00;;;;;;5071029;28;20453;-71
2023/04/05 07:38:46;;;;;;;532.25;52.13;;;9.60;96.80;;;;;;5069708;28;20048;-70
2023/04/05 07:41:11;;;;;;;80.38;14.68;;;9.40;95.70;;;;;;5069884;28;20068;-71
2023/04/05 07:43:37;;;;;;;30.20;9.63;;;9.60;94.40;;;;;;5069903;28;20036;-72
2023/04/05 07:46:03;;;;;;;44.63;9.57;;;9.70;93.90;;;;;;5070884;28;20040;-71
2023/04/05 07:48:29;;;;;;;13.32;8.23;;;10.20;94.00;;;;;;5071499;28;20049;-71
2023/04/05 07:50:55;;;;;;;15.60;7.38;;;9.90;92.40;;;;;;5071226;28;20098;-70
2023/04/05 07:53:21;;;;;;;188.50;101.43;;;9.90;92.10;;;;;;5071280;28;20044;-69
2023/04/05 07:55:46;;;;;;;88.25;44.30;;;10.10;92.10;;;;;;5070963;28;20040;-71
2023/04/05 07:58:13;;;;;;;15.82;8.82;;;9.90;91.50;;;;;;5071183;28;20043;-71
2023/04/05 08:00:38;;;;;;;12.25;8.10;;;9.70;91.20;;;;;;5071210;28;20045;-70
2023/04/05 08:03:07;;;;;;;12.48;7.25;;;9.60;91.60;;;;;;5071292;28;20067;-70
2023/04/05 08:05:32;;;;;;;10.98;7.80;;;9.50;91.40;;;;;;5070984;28;20055;-70
2023/04/05 08:07:58;;;;;;;12.82;7.47;;;9.50;91.30;;;;;;5071171;28;20033;-70
2023/04/05 08:10:24;;;;;;;11.85;8.23;;;9.60;90.70;;;;;;5071055;28;20032;-71
2023/04/05 08:12:49;;;;;;;11.45;8.18;;;9.90;90.40;;;;;;5070997;28;20040;-71
2023/04/05 08:15:15;;;;;;;12.77;8.25;;;9.90;89.70;;;;;;5070694;28;20085;-71
2023/04/05 08:17:41;;;;;;;11.38;8.80;;;10.10;89.70;;;;;;5073795;28;20488;-71
2023/04/05 08:20:10;;;;;;;13.00;8.38;;;10.30;89.30;;;;;;5074705;28;20037;-71
2023/04/05 08:22:35;;;;;;;15.43;7.32;;;10.30;87.30;;;;;;5073630;28;20035;-71
2023/04/05 08:25:01;;;;;;;11.77;7.30;;;10.30;88.90;;;;;;5074309;28;20045;-71
2023/04/05 08:27:26;;;;;;;72.10;32.88;;;10.40;89.10;;;;;;5073788;28;20064;-70
2023/04/05 08:29:52;;;;;;;45.10;22.02;;;10.50;88.60;;;;;;5073178;28;20036;-71
2023/04/05 08:32:17;;;;;;;21.58;11.07;;;10.60;88.40;;;;;;5075368;28;20032;-71
2023/04/05 08:34:43;;;;;;;11.63;8.30;;;10.50;86.70;;;;;;5074741;28;20032;-71
2023/04/05 08:37:11;;;;;;;13.30;7.13;;;10.50;85.50;;;;;;5074682;28;20044;-71
2023/04/05 08:39:37;;;;;;;13.35;6.72;;;10.50;85.20;;;;;;5074006;28;20040;-71
2023/04/05 08:42:10;;;;;;;20.90;7.22;;;10.80;84.50;;;;;;5074513;28;20060;-71
2023/04/05 08:44:36;;;;;;;;;;;11.20;91.60;;;;;;5074819;28;20261;-71
2023/04/05 08:47:02;;;;;;;10.88;6.97;;;11.30;81.70;;;;;;5073001;28;19924;-71
2023/04/05 08:49:27;;;;;;;7.68;6.05;;;11.50;85.10;;;;;;5074468;28;20458;-71
2023/04/05 08:51:54;;;;;;;9.07;6.03;;;11.60;82.90;;;;;;5074436;28;20508;-71
2023/04/05 08:54:20;;;;;;;11.13;6.55;;;11.70;81.50;;;;;;5074932;28;20036;-71
2023/04/05 08:56:48;;;;;;;9.68;6.45;;;11.60;79.30;;;;;;5074396;28;20645;-71
2023/04/05 08:59:17;;;;;;;8.15;6.32;;;11.50;78.60;;;;;;5072700;28;20049;-71
2023/04/05 09:01:47;;;;;;;13.73;5.95;;;11.50;77.60;;;;;;5056455;28;20048;-71
2023/04/05 09:04:21;;;;;;;7.32;5.32;;;11.30;76.80;;;;;;5073665;28;20049;-70
2023/04/05 09:06:48;;;;;;;8.48;5.47;;;11.30;76.30;;;;;;5072446;28;20048;-70
2023/04/05 09:09:15;;;;;;;7.15;6.18;;;11.10;75.90;;;;;;5073674;28;20047;-71
2023/04/05 09:11:42;;;;;;;9.55;5.78;;;11.10;75.80;;;;;;5072765;28;20040;-70
2023/04/05 09:14:10;;;;;;;10.45;6.15;;;10.90;75.20;;;;;;5073550;28;20044;-71
2023/04/05 09:16:40;;;;;;;126.70;76.18;;;11.00;74.80;;;;;;5072530;28;20056;-70
2023/04/05 09:19:07;;;;;;;11.43;6.25;;;11.20;75.50;;;;;;5073081;28;20040;-71
2023/04/05 09:22:05;;;;;;;8.15;6.10;;;11.10;75.30;;;;;;5073403;28;20028;-72
2023/04/05 09:24:40;;;;;;;7.45;5.22;;;11.00;73.00;;;;;;5073367;28;20041;-72
2023/04/05 09:27:08;;;;;;;7.07;5.47;;;11.00;73.80;;;;;;5073361;28;20041;-72
2023/04/05 09:29:35;;;;;;;9.63;5.85;;;11.20;75.10;;;;;;5072209;28;20093;-72
2023/04/05 09:32:02;;;;;;;11.02;4.90;;;11.10;74.40;;;;;;5073373;28;20036;-74
2023/04/05 09:34:31;;;;;;;11.75;5.93;;;11.20;74.10;;;;;;5071817;28;20044;-72
2023/04/05 09:36:57;;;;;;;12.65;5.43;;;11.10;73.40;;;;;;5073289;28;20040;-72
2023/04/05 09:39:31;;;;;;;7.28;4.80;;;11.10;73.60;;;;;;5073156;28;20036;-72
2023/04/05 09:42:10;;;;;;;7.72;4.35;;;11.10;71.10;;;;;;5073243;28;20059;-72
2023/04/05 09:45:01;;;;;;;6.78;5.22;;;10.90;70.60;;;;;;5072424;28;20073;-70
2023/04/05 09:47:31;;;;;;;6.15;4.43;;;11.00;70.70;;;;;;5070473;28;20056;-70
2023/04/05 09:50:03;;;;;;;8.02;4.57;;;10.80;68.80;;;;;;5071014;28;20032;-72
2023/04/05 09:52:34;;;;;;;8.13;4.43;;;10.50;65.30;;;;;;5072964;28;20040;-71
2023/04/05 09:55:02;;;;;;;6.32;3.63;;;10.30;64.80;;;;;;5072482;28;20047;-73
2023/04/05 09:57:32;;;;;;;6.85;4.43;;;10.20;64.90;;;;;;5072357;28;20534;-73
2023/04/05 09:59:58;;;;;;;5.10;3.80;;;10.10;65.20;;;;;;5071389;28;20045;-75
2023/04/05 10:02:24;;;;;;;6.57;3.90;;;10.20;66.20;;;;;;5071722;28;20040;-72
2023/04/05 10:04:50;;;;;;;6.68;4.18;;;10.30;65.90;;;;;;5072424;28;20119;-73
2023/04/05 10:07:18;;;;;;;13.60;4.05;;;10.10;63.60;;;;;;5072627;28;20548;-71
2023/04/05 10:09:45;;;;;;;62.95;37.38;;;10.10;64.70;;;;;;5072228;28;20040;-70
2023/04/05 10:12:24;;;;;;;22.58;14.13;;;10.20;63.60;;;;;;5072673;28;20036;-71
2023/04/05 10:14:49;;;;;;;9.02;5.30;;;10.00;63.00;;;;;;5072330;28;20101;-73
2023/04/05 10:17:50;;;;;;;9.07;4.07;;;9.70;64.20;;;;;;5071159;28;20123;-74
2023/04/05 10:20:20;;;;;;;11.18;4.30;;;9.40;63.00;;;;;;5054397;28;20051;-75
2023/04/05 10:23:12;;;;;;;6.20;4.05;;;9.40;63.10;;;;;;5072394;28;20055;-72
2023/04/05 10:25:52;;;;;;;7.03;3.83;;;9.40;62.10;;;;;;5072076;28;20037;-73
2023/04/05 10:28:34;;;;;;;6.70;4.07;;;9.40;62.10;;;;;;5072279;28;20499;-74
2023/04/05 10:31:12;;;;;;;8.30;4.18;;;9.60;64.40;;;;;;5072036;28;20048;-78
2023/04/05 10:33:46;;;;;;;5.55;3.92;;;9.50;64.10;;;;;;5072431;28;20036;-76
2023/04/05 10:36:26;;;;;;;9.40;4.40;;;9.50;62.90;;;;;;5070687;28;20055;-75
2023/04/05 10:39:11;;;;;;;9.00;4.68;;;9.60;64.30;;;;;;5068813;28;20075;-72
2023/04/05 10:41:45;;;;;;;7.18;3.90;;;9.50;62.60;;;;;;5072111;28;20069;-73
2023/04/05 10:44:11;;;;;;;6.72;4.18;;;9.40;63.00;;;;;;5071930;28;20059;-73
2023/04/05 10:46:39;;;;;;;6.80;4.65;;;9.30;62.00;;;;;;5071830;28;20079;-73
2023/04/05 10:49:27;;;;;;;6.95;4.32;;;9.30;62.30;;;;;;5071853;28;20614;-73
2023/04/05 10:51:54;;;;;;;5.22;4.32;;;9.30;61.60;;;;;;5071901;28;20040;-73
2023/04/05 10:54:21;;;;;;;6.07;4.50;;;9.30;62.50;;;;;;5071811;28;20050;-73
2023/04/05 10:56:47;;;;;;;6.72;4.30;;;9.30;62.40;;;;;;5071786;28;20047;-72
2023/04/05 10:59:14;;;;;;;111.05;63.97;;;9.20;62.30;;;;;;5071596;28;20177;-74
2023/04/05 11:01:40;;;;;;;10.25;6.97;;;9.20;61.60;;;;;;5071509;28;20040;-73
2023/04/05 11:04:16;;;;;;;8.73;4.93;;;9.40;62.10;;;;;;5070998;28;20036;-73
2023/04/05 11:06:42;;;;;;;9.90;4.07;;;9.60;61.50;;;;;;5071260;28;20616;-73
2023/04/05 11:09:07;;;;;;;7.60;4.32;;;9.80;61.80;;;;;;5071294;28;20572;-71
2023/04/05 11:11:40;;;;;;;16.92;5.97;;;9.70;60.20;;;;;;5071390;28;20119;-74
2023/04/05 11:14:24;;;;;;;13.52;5.72;;;10.20;74.80;;;;;;5071645;28;20036;-72
2023/04/05 11:16:55;;;;;;;12.30;4.93;;;11.00;96.60;;;;;;5071760;28;20036;-73
2023/04/05 11:19:41;;;;;;;9.70;4.47;;;11.20;86.00;;;;;;5070603;28;20037;-73
2023/04/05 11:22:07;;;;;;;6.10;4.05;;;11.00;73.90;;;;;;5070311;28;20174;-71
2023/04/05 11:25:01;;;;;;;9.23;4.18;;;11.00;71.90;;;;;;5071063;28;20128;-71
2023/04/05 11:27:32;;;;;;;6.20;4.45;;;10.90;65.30;;;;;;5070172;28;20450;-71
2023/04/05 11:30:03;;;;;;;5.85;4.05;;;10.90;66.70;;;;;;5071250;28;20062;-71
2023/04/05 11:32:44;;;;;;;7.70;4.03;;;10.80;65.10;;;;;;5071302;28;20041;-76
2023/04/05 11:35:24;;;;;;;5.35;3.75;;;10.70;63.00;;;;;;5070433;28;20526;-76
2023/04/05 11:38:04;;;;;;;8.95;3.78;;;10.60;62.50;;;;;;5071582;28;20048;-76
2023/04/05 11:40:32;;;;;;;6.78;3.97;;;10.30;60.70;;;;;;5069960;28;20125;-77
2023/04/05 11:43:03;;;;;;;6.15;4.13;;;10.10;59.00;;;;;;5070034;28;20051;-77
2023/04/05 11:45:30;;;;;;;8.43;4.88;;;10.20;60.20;;;;;;5070001;28;20041;-78
2023/04/05 11:47:56;;;;;;;6.50;4.03;;;10.20;61.50;;;;;;5070314;28;20078;-76
2023/04/05 11:50:22;;;;;;;5.57;3.72;;;10.10;59.70;;;;;;5069969;28;20047;-77
2023/04/05 11:53:07;;;;;;;5.47;3.78;;;10.10;58.90;;;;;;5073117;28;20041;-77
2023/04/05 11:55:33;;;;;;;7.28;4.18;;;10.00;56.70;;;;;;5075073;28;20037;-75
2023/04/05 11:57:59;;;;;;;9.43;4.35;;;9.90;57.10;;;;;;5073747;28;20041;-77
2023/04/05 12:00:25;;;;;;;7.57;3.95;;;9.90;57.00;;;;;;5073775;28;20407;-77
2023/04/05 12:02:55;;;;;;;6.03;4.07;;;9.90;57.40;;;;;;5073684;28;20044;-78
2023/04/05 12:05:20;;;;;;;6.70;3.95;;;10.00;57.60;;;;;;5073466;28;20124;-77
2023/04/05 12:07:51;;;;;;;9.80;4.40;;;10.10;57.60;;;;;;5073990;28;20731;-72
2023/04/05 12:10:17;;;;;;;8.32;4.30;;;10.50;58.20;;;;;;5074592;28;20415;-72
2023/04/05 12:12:43;;;;;;;6.22;4.47;;;10.80;57.80;;;;;;5074167;28;20041;-73
2023/04/05 12:15:13;;;;;;;10.40;4.28;;;10.90;57.60;;;;;;5074617;28;20041;-75
2023/04/05 12:17:48;;;;;;;5.13;4.03;;;11.00;57.00;;;;;;5073528;28;20041;-74
2023/04/05 12:20:20;;;;;;;8.77;3.83;;;10.90;55.90;;;;;;5074736;28;20067;-74
2023/04/05 12:22:47;;;;;;;6.75;3.50;;;10.70;53.40;;;;;;5073557;28;20048;-74
2023/04/05 12:25:14;;;;;;;5.88;3.40;;;10.60;52.80;;;;;;5073499;28;20456;-74
2023/04/05 12:27:40;;;;;;;5.75;3.67;;;10.60;51.90;;;;;;5074161;28;20032;-74
2023/04/05 12:30:15;;;;;;;10.60;4.78;;;10.40;51.60;;;;;;5072464;28;20606;-73
2023/04/05 12:32:43;;;;;;;6.82;4.20;;;10.30;52.00;;;;;;5072389;28;20541;-72
2023/04/05 12:35:14;;;;;;;6.95;3.83;;;10.30;51.60;;;;;;5074099;28;20059;-72
2023/04/05 12:37:40;;;;;;;14.73;5.28;;;10.30;51.00;;;;;;5074170;28;20032;-72
2023/04/05 12:40:06;;;;;;;8.60;3.67;;;10.30;51.60;;;;;;5074136;28;20051;-71
2023/04/05 12:42:35;;;;;;;7.50;3.35;;;10.30;51.40;;;;;;5073683;28;20082;-72
2023/04/05 12:45:09;;;;;;;4.82;3.05;;;10.40;50.90;;;;;;5073883;28;20050;-72
2023/04/05 12:47:45;;;;;;;5.68;3.28;;;10.40;51.00;;;;;;5074216;28;20044;-71
2023/04/05 12:50:16;;;;;;;4.38;3.60;;;10.60;51.20;;;;;;5074019;28;20189;-72
2023/04/05 12:52:52;;;;;;;5.85;3.47;;;10.70;50.60;;;;;;5072477;28;20062;-72